createdAt,value
2019-03-25T00:01:45.736Z,1.90
2019-03-25T00:04:16.328Z,2.00
2019-03-25T00:06:48.612Z,2.00
2019-03-25T00:09:19.184Z,2.10
2019-03-25T00:11:49.800Z,2.10
2019-03-25T00:14:20.376Z,2.20
2019-03-25T00:16:50.994Z,2.20
2019-03-25T00:19:21.791Z,2.30
2019-03-25T00:21:53.104Z,2.40
2019-03-25T00:24:23.705Z,2.50
2019-03-25T00:26:54.581Z,2.60
2019-03-25T00:29:25.372Z,2.60
2019-03-25T00:31:56.321Z,2.60
2019-03-25T00:34:27.359Z,2.70
2019-03-25T00:36:57.945Z,2.70
2019-03-25T00:39:28.981Z,2.70
2019-03-25T00:41:59.568Z,2.70
2019-03-25T00:44:30.685Z,2.70
2019-03-25T00:47:01.488Z,2.80
2019-03-25T00:49:32.048Z,2.80
2019-03-25T00:52:03.144Z,2.80
2019-03-25T00:54:33.945Z,2.80
2019-03-25T00:57:04.752Z,2.90
2019-03-25T00:59:35.588Z,2.90
2019-03-25T01:02:06.232Z,3.00
2019-03-25T01:04:36.859Z,2.90
2019-03-25T01:07:07.736Z,3.00
2019-03-25T01:09:39.567Z,3.00
2019-03-25T01:12:10.508Z,2.90
2019-03-25T01:14:41.124Z,2.90
2019-03-25T01:17:11.909Z,3.00
2019-03-25T01:19:42.499Z,3.00
2019-03-25T01:22:13.760Z,3.00
2019-03-25T01:24:44.797Z,3.00
2019-03-25T01:27:16.039Z,3.00
2019-03-25T01:29:46.653Z,3.00
2019-03-25T01:32:17.257Z,3.00
2019-03-25T01:34:47.817Z,3.00
2019-03-25T01:37:18.444Z,3.00
2019-03-25T01:39:49.232Z,3.00
2019-03-25T01:42:19.857Z,3.10
2019-03-25T01:44:50.677Z,3.10
2019-03-25T01:47:21.833Z,3.10
2019-03-25T01:49:52.616Z,3.10
2019-03-25T01:52:23.478Z,3.20
2019-03-25T01:54:54.056Z,3.20
2019-03-25T01:57:25.148Z,3.20
2019-03-25T01:59:56.680Z,3.10
2019-03-25T02:02:27.796Z,3.20
2019-03-25T02:04:58.656Z,3.20
2019-03-25T02:07:29.787Z,3.10
2019-03-25T02:10:00.592Z,3.20
2019-03-25T02:12:31.452Z,3.20
2019-03-25T02:15:02.021Z,3.20
2019-03-25T02:17:32.717Z,3.30
2019-03-25T02:20:04.568Z,3.30
2019-03-25T02:22:35.242Z,3.30
2019-03-25T02:25:06.496Z,3.20
2019-03-25T02:27:37.742Z,3.20
2019-03-25T02:30:08.869Z,3.30
2019-03-25T02:32:39.737Z,3.30
2019-03-25T02:35:10.849Z,3.30
2019-03-25T02:37:41.417Z,3.40
2019-03-25T02:40:12.473Z,3.30
2019-03-25T02:42:43.149Z,3.30
2019-03-25T02:45:13.781Z,3.30
2019-03-25T02:47:44.432Z,3.30
2019-03-25T02:50:15.313Z,3.30
2019-03-25T02:52:46.173Z,3.30
2019-03-25T02:55:16.762Z,3.40
2019-03-25T02:57:47.634Z,3.40
2019-03-25T03:00:33.464Z,3.40
2019-03-25T03:03:04.221Z,3.40
2019-03-25T03:05:34.878Z,3.30
2019-03-25T03:08:05.937Z,3.30
2019-03-25T03:10:36.819Z,3.30
2019-03-25T03:13:07.432Z,3.20
2019-03-25T03:15:37.994Z,3.20
2019-03-25T03:18:08.863Z,3.30
2019-03-25T03:20:40.001Z,3.20
2019-03-25T03:23:10.617Z,3.20
2019-03-25T03:25:56.167Z,3.20
2019-03-25T03:28:14.474Z,3.20
2019-03-25T03:30:45.257Z,3.00
2019-03-25T03:33:15.895Z,3.00
2019-03-25T03:35:46.856Z,3.00
2019-03-25T03:38:18.099Z,3.00
2019-03-25T03:40:49.869Z,3.10
2019-03-25T03:43:21.491Z,3.00
2019-03-25T03:45:52.131Z,3.00
2019-03-25T03:48:23.045Z,3.00
2019-03-25T03:50:53.869Z,3.10
2019-03-25T03:53:24.478Z,3.10
2019-03-25T03:55:55.033Z,3.00
2019-03-25T03:58:28.152Z,3.00
2019-03-25T04:00:58.977Z,3.10
2019-03-25T04:03:30.528Z,3.10
2019-03-25T04:06:01.153Z,3.10
2019-03-25T04:08:32.189Z,3.10
2019-03-25T04:11:02.777Z,3.10
2019-03-25T04:13:33.639Z,3.10
2019-03-25T04:16:04.336Z,3.00
2019-03-25T04:18:35.394Z,3.10
2019-03-25T04:21:06.729Z,3.00
2019-03-25T04:23:37.295Z,3.10
2019-03-25T04:26:07.922Z,3.10
2019-03-25T04:28:38.698Z,3.00
2019-03-25T04:31:09.560Z,3.10
2019-03-25T04:33:40.601Z,3.10
2019-03-25T04:36:11.792Z,3.10
2019-03-25T04:38:42.399Z,3.10
2019-03-25T04:41:12.961Z,3.20
2019-03-25T04:43:43.796Z,3.20
2019-03-25T04:46:14.357Z,3.20
2019-03-25T04:48:45.224Z,3.20
2019-03-25T04:51:16.026Z,3.10
2019-03-25T04:53:46.861Z,3.10
2019-03-25T04:56:17.661Z,3.10
2019-03-25T04:58:48.514Z,3.10
2019-03-25T05:01:19.073Z,3.10
2019-03-25T05:03:49.972Z,3.10
2019-03-25T05:06:20.547Z,3.00
2019-03-25T05:08:51.404Z,3.00
2019-03-25T05:11:30.276Z,3.10
2019-03-25T05:13:54.279Z,3.10
2019-03-25T05:16:25.305Z,3.10
2019-03-25T05:18:56.376Z,3.10
2019-03-25T05:21:27.400Z,3.30
2019-03-25T05:23:58.319Z,3.30
2019-03-25T05:26:29.852Z,3.30
2019-03-25T05:29:00.468Z,3.30
2019-03-25T05:31:31.264Z,3.40
2019-03-25T05:34:02.138Z,3.40
2019-03-25T05:36:32.706Z,3.40
2019-03-25T05:39:04.799Z,3.60
2019-03-25T05:41:36.000Z,3.70
2019-03-25T05:44:06.864Z,3.80
2019-03-25T05:46:38.852Z,3.90
2019-03-25T05:49:09.688Z,3.90
2019-03-25T05:51:40.716Z,3.90
2019-03-25T05:54:11.963Z,4.00
2019-03-25T05:56:42.516Z,4.10
2019-03-25T05:59:13.156Z,4.10
2019-03-25T06:01:44.355Z,4.30
2019-03-25T06:04:15.064Z,4.30
2019-03-25T06:06:45.876Z,4.30
2019-03-25T06:09:16.736Z,4.30
2019-03-25T06:11:47.731Z,4.40
2019-03-25T06:14:18.536Z,4.40
2019-03-25T06:16:49.152Z,4.30
2019-03-25T06:19:19.736Z,4.40
2019-03-25T06:21:50.580Z,4.40
2019-03-25T06:24:21.145Z,4.40
2019-03-25T06:26:51.752Z,4.40
2019-03-25T06:29:22.565Z,4.50
2019-03-25T06:31:53.191Z,4.60
2019-03-25T06:34:23.996Z,4.70
2019-03-25T06:36:54.852Z,4.70
2019-03-25T06:39:25.639Z,4.80
2019-03-25T06:41:56.476Z,4.70
2019-03-25T06:44:27.316Z,4.50
2019-03-25T06:46:57.928Z,4.50
2019-03-25T06:49:28.537Z,4.30
2019-03-25T06:51:59.316Z,4.10
2019-03-25T06:54:30.164Z,4.10
2019-03-25T06:57:00.726Z,4.00
2019-03-25T06:59:31.601Z,3.80
2019-03-25T07:02:02.231Z,3.70
2019-03-25T07:04:33.098Z,3.50
2019-03-25T07:07:03.704Z,3.40
2019-03-25T07:09:35.721Z,3.40
2019-03-25T07:12:06.521Z,3.40
2019-03-25T07:14:37.676Z,3.40
2019-03-25T07:17:08.706Z,3.40
2019-03-25T07:19:39.740Z,3.50
2019-03-25T07:22:10.568Z,3.40
2019-03-25T07:24:41.445Z,3.30
2019-03-25T07:27:12.979Z,3.30
2019-03-25T07:29:43.676Z,3.40
2019-03-25T07:32:14.480Z,3.30
2019-03-25T07:34:45.090Z,3.20
2019-03-25T07:37:16.104Z,3.10
2019-03-25T07:39:46.887Z,3.00
2019-03-25T07:42:18.000Z,2.90
2019-03-25T07:44:48.784Z,2.90
2019-03-25T07:47:19.400Z,2.70
2019-03-25T07:49:50.672Z,2.70
2019-03-25T07:52:21.561Z,2.70
2019-03-25T07:54:52.169Z,2.60
2019-03-25T07:57:22.987Z,2.60
2019-03-25T07:59:54.031Z,2.60
2019-03-25T08:02:24.695Z,2.70
2019-03-25T08:04:55.782Z,2.60
2019-03-25T08:07:26.618Z,2.50
2019-03-25T08:09:57.516Z,2.50
2019-03-25T08:12:28.338Z,2.50
2019-03-25T08:14:59.415Z,2.60
2019-03-25T08:17:30.065Z,2.60
2019-03-25T08:20:01.081Z,2.60
2019-03-25T08:22:31.636Z,2.50
2019-03-25T08:25:02.509Z,2.60
2019-03-25T08:27:33.064Z,2.60
2019-03-25T08:30:03.913Z,2.50
2019-03-25T08:32:34.537Z,2.60
2019-03-25T08:35:06.044Z,2.60
2019-03-25T08:37:37.819Z,2.60
2019-03-25T08:40:10.285Z,2.70
2019-03-25T08:42:40.888Z,2.70
2019-03-25T08:45:12.060Z,2.90
2019-03-25T08:47:42.876Z,2.80
2019-03-25T08:50:13.895Z,2.90
2019-03-25T08:52:44.676Z,2.90
2019-03-25T08:55:15.309Z,3.00
2019-03-25T08:57:46.337Z,3.20
2019-03-25T09:00:17.177Z,3.10
2019-03-25T09:02:48.092Z,3.20
2019-03-25T09:05:18.785Z,3.20
2019-03-25T09:07:49.831Z,3.20
2019-03-25T09:10:21.001Z,3.30
2019-03-25T09:12:51.793Z,3.40
2019-03-25T09:15:22.412Z,3.50
2019-03-25T09:17:52.996Z,3.80
2019-03-25T09:20:24.095Z,4.10
2019-03-25T09:22:54.733Z,4.40
2019-03-25T09:25:25.788Z,4.70
2019-03-25T09:27:57.371Z,4.80
2019-03-25T09:31:13.223Z,4.80
2019-03-25T09:33:44.173Z,4.80
2019-03-25T09:36:15.580Z,4.90
2019-03-25T09:38:46.436Z,5.00
2019-03-25T09:41:17.468Z,5.10
2019-03-25T09:43:48.091Z,5.30
2019-03-25T09:46:18.732Z,5.50
2019-03-25T09:48:49.661Z,5.70
2019-03-25T09:51:20.600Z,5.80
2019-03-25T09:53:51.216Z,5.90
2019-03-25T09:56:21.827Z,5.90
2019-03-25T09:58:52.940Z,6.00
2019-03-25T10:01:23.791Z,6.00
2019-03-25T10:03:54.354Z,6.00
2019-03-25T10:06:25.186Z,5.80
2019-03-25T10:08:55.744Z,5.80
2019-03-25T10:11:26.581Z,5.90
2019-03-25T10:13:57.179Z,6.00
2019-03-25T10:16:28.828Z,5.70
2019-03-25T10:18:59.640Z,5.60
2019-03-25T10:21:30.260Z,5.60
2019-03-25T10:24:00.968Z,5.80
2019-03-25T10:26:31.607Z,5.80
2019-03-25T10:29:02.396Z,5.70
2019-03-25T10:31:33.192Z,5.70
2019-03-25T10:34:04.041Z,5.80
2019-03-25T10:36:35.078Z,6.20
2019-03-25T10:39:07.772Z,6.30
2019-03-25T10:41:38.679Z,6.20
2019-03-25T10:44:10.559Z,6.40
2019-03-25T10:46:41.394Z,6.40
2019-03-25T10:49:11.988Z,6.50
2019-03-25T10:51:42.796Z,6.60
2019-03-25T10:54:13.872Z,6.50
2019-03-25T10:56:49.184Z,6.60
2019-03-25T10:59:17.056Z,6.70
2019-03-25T11:01:47.610Z,7.20
2019-03-25T11:04:18.682Z,7.60
2019-03-25T11:06:49.556Z,7.70
2019-03-25T11:09:20.615Z,7.70
2019-03-25T11:11:51.497Z,7.90
2019-03-25T11:14:22.368Z,7.90
2019-03-25T11:16:52.932Z,8.10
2019-03-25T11:19:23.716Z,8.30
2019-03-25T11:21:54.332Z,7.90
2019-03-25T11:24:25.107Z,8.10
2019-03-25T11:26:55.715Z,8.50
2019-03-25T11:29:26.316Z,8.20
2019-03-25T11:31:56.876Z,8.20
2019-03-25T11:34:27.449Z,8.50
2019-03-25T11:36:58.271Z,8.70
2019-03-25T11:39:29.076Z,8.40
2019-03-25T11:42:00.096Z,8.00
2019-03-25T11:44:30.643Z,8.10
2019-03-25T11:47:01.532Z,8.40
2019-03-25T11:49:32.310Z,8.70
2019-03-25T11:52:13.684Z,8.80
2019-03-25T11:54:45.693Z,8.40
2019-03-25T11:57:16.535Z,8.30
2019-03-25T11:59:47.104Z,8.30
2019-03-25T12:02:18.021Z,8.50
2019-03-25T12:04:48.907Z,8.60
2019-03-25T12:07:20.140Z,8.70
2019-03-25T12:09:50.975Z,8.70
2019-03-25T12:12:21.784Z,8.30
2019-03-25T12:14:52.719Z,8.00
2019-03-25T12:17:23.529Z,7.50
2019-03-25T12:19:54.616Z,7.50
2019-03-25T12:22:25.647Z,7.80
2019-03-25T12:24:56.491Z,7.80
2019-03-25T12:27:27.234Z,7.90
2019-03-25T12:29:58.353Z,7.90
2019-03-25T12:32:29.127Z,7.90
2019-03-25T12:34:59.989Z,8.10
2019-03-25T12:37:30.764Z,8.00
2019-03-25T12:40:01.594Z,7.70
2019-03-25T12:42:32.159Z,7.60
2019-03-25T12:45:03.173Z,8.10
2019-03-25T12:47:33.733Z,8.10
2019-03-25T12:50:04.959Z,8.20
2019-03-25T12:52:35.627Z,8.30
2019-03-25T12:55:06.468Z,8.30
2019-03-25T12:57:37.087Z,8.50
2019-03-25T13:00:08.496Z,8.60
2019-03-25T13:02:39.682Z,8.70
2019-03-25T13:05:10.936Z,8.90
2019-03-25T13:07:41.714Z,9.30
2019-03-25T13:10:12.538Z,9.30
2019-03-25T13:12:43.573Z,9.20
2019-03-25T13:15:14.736Z,9.40
2019-03-25T13:17:45.296Z,9.50
2019-03-25T13:20:17.000Z,9.60
2019-03-25T13:22:48.081Z,9.50
2019-03-25T13:25:19.081Z,9.50
2019-03-25T13:27:49.693Z,9.20
2019-03-25T13:30:20.704Z,8.90
2019-03-25T13:32:51.564Z,8.80
2019-03-25T13:35:22.335Z,8.70
2019-03-25T13:37:53.128Z,8.60
2019-03-25T13:40:23.696Z,8.50
2019-03-25T13:42:54.663Z,8.40
2019-03-25T13:45:25.276Z,8.10
2019-03-25T13:47:55.852Z,6.90
2019-03-25T13:50:26.460Z,5.80
2019-03-25T13:52:57.024Z,5.20
2019-03-25T13:55:27.632Z,5.00
2019-03-25T13:57:58.444Z,5.10
2019-03-25T14:00:37.155Z,5.20
2019-03-25T14:03:08.129Z,5.30
2019-03-25T14:05:39.378Z,5.60
2019-03-25T14:08:10.176Z,5.70
2019-03-25T14:10:40.947Z,5.60
2019-03-25T14:13:11.766Z,5.70
2019-03-25T14:15:42.579Z,5.80
2019-03-25T14:18:13.247Z,5.70
2019-03-25T14:20:44.081Z,5.80
2019-03-25T14:23:14.692Z,5.80
2019-03-25T14:25:45.297Z,5.80
2019-03-25T14:28:15.847Z,5.90
2019-03-25T14:30:46.456Z,6.10
2019-03-25T14:33:17.480Z,6.20
2019-03-25T14:35:48.083Z,6.20
2019-03-25T14:38:18.697Z,6.30
2019-03-25T14:40:49.543Z,6.30
2019-03-25T14:43:20.197Z,6.40
2019-03-25T14:45:51.052Z,6.40
2019-03-25T14:48:21.612Z,6.30
2019-03-25T14:50:52.292Z,6.30
2019-03-25T14:53:23.300Z,6.40
2019-03-25T14:55:54.163Z,6.50
2019-03-25T14:58:24.806Z,6.60
2019-03-25T15:00:55.362Z,6.60
2019-03-25T15:03:25.984Z,6.80
2019-03-25T15:05:57.297Z,6.80
2019-03-25T15:08:28.128Z,6.90
2019-03-25T15:10:58.936Z,7.00
2019-03-25T15:13:29.672Z,6.90
2019-03-25T15:16:00.384Z,7.10
2019-03-25T15:18:31.244Z,7.30
2019-03-25T15:21:01.803Z,7.50
2019-03-25T15:23:32.884Z,7.70
2019-03-25T15:26:03.831Z,7.70
2019-03-25T15:28:34.650Z,8.00
2019-03-25T15:31:05.221Z,8.20
2019-03-25T15:33:35.832Z,8.30
2019-03-25T15:36:06.696Z,8.30
2019-03-25T15:38:37.756Z,8.00
2019-03-25T15:41:08.568Z,7.40
2019-03-25T15:43:39.226Z,6.80
2019-03-25T15:46:10.065Z,6.60
2019-03-25T15:48:41.156Z,6.60
2019-03-25T15:51:12.112Z,6.70
2019-03-25T15:53:42.728Z,7.10
2019-03-25T15:56:13.297Z,7.20
2019-03-25T15:58:44.183Z,7.40
2019-03-25T16:01:15.018Z,7.60
2019-03-25T16:03:45.880Z,7.60
2019-03-25T16:06:16.769Z,7.50
2019-03-25T16:08:47.378Z,7.50
2019-03-25T16:11:18.204Z,7.30
2019-03-25T16:13:49.040Z,7.20
2019-03-25T16:16:19.867Z,6.90
2019-03-25T16:18:50.831Z,6.90
2019-03-25T16:21:21.637Z,7.30
2019-03-25T16:23:52.244Z,7.40
2019-03-25T16:26:23.262Z,7.70
2019-03-25T16:28:54.114Z,7.80
2019-03-25T16:31:24.911Z,7.80
2019-03-25T16:33:55.767Z,7.90
2019-03-25T16:36:26.797Z,7.80
2019-03-25T16:38:58.200Z,7.50
2019-03-25T16:41:29.289Z,7.30
2019-03-25T16:44:00.544Z,7.10
2019-03-25T16:46:31.452Z,7.10
2019-03-25T16:49:02.327Z,6.90
2019-03-25T16:51:32.931Z,6.80
2019-03-25T16:54:03.828Z,6.80
2019-03-25T16:56:34.434Z,6.70
2019-03-25T16:59:05.304Z,6.80
2019-03-25T17:01:36.734Z,6.70
2019-03-25T17:04:07.915Z,6.60
2019-03-25T17:06:39.226Z,6.60
2019-03-25T17:09:10.342Z,6.70
2019-03-25T17:11:41.639Z,6.70
2019-03-25T17:14:12.199Z,6.70
2019-03-25T17:16:43.081Z,6.70
2019-03-25T17:19:14.362Z,6.60
2019-03-25T17:21:45.299Z,6.50
2019-03-25T17:24:16.472Z,6.40
2019-03-25T17:26:47.571Z,6.40
2019-03-25T17:29:18.235Z,6.30
2019-03-25T17:31:48.916Z,6.30
2019-03-25T17:34:20.065Z,6.40
2019-03-25T17:36:50.798Z,6.30
2019-03-25T17:39:21.873Z,6.30
2019-03-25T17:41:52.596Z,6.20
2019-03-25T17:44:23.538Z,6.20
2019-03-25T17:46:54.396Z,6.10
2019-03-25T17:49:26.132Z,6.00
2019-03-25T17:51:57.036Z,5.90
2019-03-25T17:54:27.680Z,5.90
2019-03-25T17:56:58.375Z,5.90
2019-03-25T17:59:29.261Z,5.80
2019-03-25T18:01:59.918Z,5.90
2019-03-25T18:04:31.813Z,6.00
2019-03-25T18:07:02.512Z,6.00
2019-03-25T18:09:33.728Z,6.00
2019-03-25T18:12:05.040Z,6.00
2019-03-25T18:14:35.909Z,6.00
2019-03-25T18:17:07.064Z,6.00
2019-03-25T18:19:37.663Z,5.90
2019-03-25T18:22:08.308Z,5.90
2019-03-25T18:24:38.933Z,5.80
2019-03-25T18:27:09.731Z,5.80
2019-03-25T18:29:40.888Z,5.90
2019-03-25T18:32:11.737Z,6.00
2019-03-25T18:34:42.707Z,6.00
2019-03-25T18:37:13.885Z,6.00
2019-03-25T18:39:44.817Z,6.00
2019-03-25T18:42:15.372Z,6.00
2019-03-25T18:44:46.589Z,5.90
2019-03-25T18:47:17.147Z,6.00
2019-03-25T18:49:48.068Z,6.10
2019-03-25T18:52:18.952Z,6.00
2019-03-25T18:54:50.883Z,6.10
2019-03-25T18:57:21.501Z,6.00
2019-03-25T18:59:52.296Z,6.00
2019-03-25T19:02:23.204Z,6.10
2019-03-25T19:04:53.876Z,6.00
2019-03-25T19:07:25.395Z,6.00
2019-03-25T19:09:56.259Z,6.00
2019-03-25T19:12:28.008Z,5.90
2019-03-25T19:14:58.871Z,5.80
2019-03-25T19:17:29.771Z,5.70
2019-03-25T19:20:00.820Z,5.70
2019-03-25T19:22:32.182Z,5.80
2019-03-25T19:25:03.052Z,5.80
2019-03-25T19:27:34.205Z,5.80
2019-03-25T19:30:05.757Z,5.70
2019-03-25T19:32:36.595Z,5.60
2019-03-25T19:35:08.565Z,5.60
2019-03-25T19:37:40.200Z,5.70
2019-03-25T19:40:11.485Z,5.60
2019-03-25T19:42:42.365Z,5.60
2019-03-25T19:45:13.734Z,5.60
2019-03-25T19:47:44.475Z,5.50
2019-03-25T19:50:15.960Z,5.60
2019-03-25T19:52:46.653Z,5.60
2019-03-25T19:55:17.524Z,5.70
2019-03-25T19:57:48.275Z,5.70
2019-03-25T20:00:28.880Z,5.80
2019-03-25T20:02:59.693Z,5.80
2019-03-25T20:05:30.654Z,5.70
2019-03-25T20:08:01.478Z,5.70
2019-03-25T20:10:35.128Z,5.70
2019-03-25T20:13:06.003Z,5.70
2019-03-25T20:15:46.027Z,5.70
2019-03-25T20:18:09.340Z,5.70
2019-03-25T20:20:40.152Z,5.70
2019-03-25T20:23:10.760Z,5.70
2019-03-25T20:25:41.691Z,5.70
2019-03-25T20:28:12.442Z,5.60
2019-03-25T20:30:44.187Z,5.40
2019-03-25T20:33:15.023Z,5.40
2019-03-25T20:35:45.809Z,5.20
2019-03-25T20:38:17.041Z,5.10
2019-03-25T20:40:48.442Z,5.10
2019-03-25T20:43:19.722Z,5.10
2019-03-25T20:45:50.338Z,5.00
2019-03-25T20:48:20.924Z,4.90
2019-03-25T20:50:51.828Z,5.00
2019-03-25T20:53:22.768Z,5.00
2019-03-25T20:55:53.787Z,5.00
2019-03-25T20:58:24.497Z,5.00
2019-03-25T21:00:57.267Z,5.00
2019-03-25T21:03:28.145Z,5.00
2019-03-25T21:05:58.844Z,5.00
2019-03-25T21:08:30.212Z,4.90
2019-03-25T21:11:01.837Z,4.90
2019-03-25T21:13:33.888Z,4.80
2019-03-25T21:16:05.349Z,4.60
2019-03-25T21:18:35.988Z,4.60
2019-03-25T21:21:06.868Z,4.60
2019-03-25T21:23:37.714Z,4.50
2019-03-25T21:26:11.008Z,4.50
2019-03-25T21:28:41.118Z,4.50
2019-03-25T21:31:12.245Z,4.40
2019-03-25T21:33:43.803Z,4.40
2019-03-25T21:36:14.407Z,4.40
2019-03-25T21:38:45.460Z,4.40
2019-03-25T21:41:16.368Z,4.40
2019-03-25T21:43:47.225Z,4.40
2019-03-25T21:46:18.205Z,4.40
2019-03-25T21:48:49.012Z,4.40
2019-03-25T21:51:19.903Z,4.40
2019-03-25T21:53:53.057Z,4.40
2019-03-25T21:56:22.998Z,4.40
2019-03-25T21:58:53.854Z,4.30
2019-03-25T22:01:24.943Z,4.20
2019-03-25T22:03:56.019Z,4.30
2019-03-25T22:06:26.629Z,4.20
2019-03-25T22:08:57.676Z,4.20
2019-03-25T22:11:29.200Z,4.10
2019-03-25T22:13:59.780Z,4.00
2019-03-25T22:16:30.405Z,4.10
2019-03-25T22:19:01.450Z,4.00
2019-03-25T22:21:32.284Z,4.00
2019-03-25T22:24:02.838Z,4.10
2019-03-25T22:26:34.034Z,4.10
2019-03-25T22:29:04.896Z,3.90
2019-03-25T22:31:35.852Z,3.70
2019-03-25T22:34:06.888Z,3.60
2019-03-25T22:36:37.728Z,3.60
2019-03-25T22:39:08.826Z,3.50
2019-03-25T22:41:40.119Z,3.50
2019-03-25T22:44:10.692Z,3.50
2019-03-25T22:46:41.312Z,3.60
2019-03-25T22:49:12.136Z,3.40
2019-03-25T22:51:43.653Z,3.20
2019-03-25T22:54:14.460Z,3.20
2019-03-25T22:56:45.339Z,2.90
2019-03-25T22:59:15.899Z,2.90
2019-03-25T23:01:46.842Z,2.80
2019-03-25T23:04:17.617Z,2.70
2019-03-25T23:06:48.480Z,2.50
2019-03-25T23:09:19.051Z,2.40
2019-03-25T23:11:49.920Z,2.40
2019-03-25T23:14:21.713Z,2.30
2019-03-25T23:16:52.585Z,2.20
2019-03-25T23:19:23.625Z,2.20
2019-03-25T23:21:54.479Z,2.10
2019-03-25T23:24:25.284Z,2.10
2019-03-25T23:26:55.896Z,2.00
2019-03-25T23:29:26.758Z,2.00
2019-03-25T23:31:57.376Z,2.00
2019-03-25T23:34:27.945Z,2.00
2019-03-25T23:36:58.809Z,2.00
2019-03-25T23:39:29.864Z,2.00
2019-03-25T23:42:00.564Z,1.90
2019-03-25T23:44:31.694Z,1.90
2019-03-25T23:47:02.316Z,1.80
2019-03-25T23:49:33.194Z,1.80
2019-03-25T23:52:03.827Z,1.70
2019-03-25T23:54:34.541Z,1.70
2019-03-25T23:57:05.352Z,1.70
2019-03-25T23:59:36.196Z,1.60
